27°C Temp
6°C Dewpoint
26% Humidity
Temperature
19 KM/H
12 MPH
10 KTS
330°
North North
West

Wind Speed
Partly Cloudy
Conditions
Pressure 1012.22 (hPa) - 29.89 (in)
Visibility 9.9 (mi) - 16.0 (km)

Current Conditions
KSJC
Location 9(km)
Metar :KSJC 092153Z 33010KT 10SM FEW110 SCT180 27/06 A2989 RMK AO2 SLP121 T02720061
Sun 9th May 22:53 pm

Airport
  Metar Aviation API Data Provided by https://www.checkwx.com/ PHP scripts by weather34.com ©2021